sensor_id;sensor_type;location;lat;lon;timestamp;temperature;humidity
38325;DHT22;24126;52.672;13.622;2023-07-13T00:00:23;23.30;52.50
38325;DHT22;24126;52.672;13.622;2023-07-13T00:02:50;23.30;52.70
38325;DHT22;24126;52.672;13.622;2023-07-13T00:05:20;23.30;52.60
38325;DHT22;24126;52.672;13.622;2023-07-13T00:07:47;23.30;52.70
38325;DHT22;24126;52.672;13.622;2023-07-13T00:10:14;23.30;52.70
38325;DHT22;24126;52.672;13.622;2023-07-13T00:12:41;23.20;52.70
38325;DHT22;24126;52.672;13.622;2023-07-13T00:15:20;23.20;53.00
38325;DHT22;24126;52.672;13.622;2023-07-13T00:17:49;23.20;53.10
38325;DHT22;24126;52.672;13.622;2023-07-13T00:20:16;23.10;53.40
38325;DHT22;24126;52.672;13.622;2023-07-13T00:22:43;23.00;53.60
38325;DHT22;24126;52.672;13.622;2023-07-13T00:25:11;23.00;53.80
38325;DHT22;24126;52.672;13.622;2023-07-13T00:27:38;22.90;53.60
38325;DHT22;24126;52.672;13.622;2023-07-13T00:30:05;22.90;53.70
38325;DHT22;24126;52.672;13.622;2023-07-13T00:32:32;22.80;53.90
38325;DHT22;24126;52.672;13.622;2023-07-13T00:34:59;22.70;54.00
38325;DHT22;24126;52.672;13.622;2023-07-13T00:37:27;22.60;54.10
38325;DHT22;24126;52.672;13.622;2023-07-13T00:39:54;22.60;54.20
38325;DHT22;24126;52.672;13.622;2023-07-13T00:42:21;22.50;54.60
38325;DHT22;24126;52.672;13.622;2023-07-13T00:47:35;22.50;55.00
38325;DHT22;24126;52.672;13.622;2023-07-13T00:50:03;22.50;55.00
38325;DHT22;24126;52.672;13.622;2023-07-13T00:52:33;22.50;55.10
38325;DHT22;24126;52.672;13.622;2023-07-13T00:55:02;22.50;55.20
38325;DHT22;24126;52.672;13.622;2023-07-13T00:57:29;22.50;55.10
38325;DHT22;24126;52.672;13.622;2023-07-13T00:59:58;22.40;55.20
38325;DHT22;24126;52.672;13.622;2023-07-13T01:02:26;22.30;55.30
38325;DHT22;24126;52.672;13.622;2023-07-13T01:04:56;22.30;55.70
38325;DHT22;24126;52.672;13.622;2023-07-13T01:07:23;22.20;55.90
38325;DHT22;24126;52.672;13.622;2023-07-13T01:09:50;22.20;55.90
38325;DHT22;24126;52.672;13.622;2023-07-13T01:12:19;22.20;55.80
38325;DHT22;24126;52.672;13.622;2023-07-13T01:14:46;22.20;56.00
38325;DHT22;24126;52.672;13.622;2023-07-13T01:17:13;22.20;56.40
38325;DHT22;24126;52.672;13.622;2023-07-13T01:19:42;22.20;56.30
38325;DHT22;24126;52.672;13.622;2023-07-13T01:22:11;22.20;56.30
38325;DHT22;24126;52.672;13.622;2023-07-13T01:24:39;22.10;56.10
38325;DHT22;24126;52.672;13.622;2023-07-13T01:27:08;22.10;56.30
38325;DHT22;24126;52.672;13.622;2023-07-13T01:29:36;22.00;56.20
38325;DHT22;24126;52.672;13.622;2023-07-13T01:32:08;22.00;56.50
38325;DHT22;24126;52.672;13.622;2023-07-13T01:34:35;21.90;56.60
38325;DHT22;24126;52.672;13.622;2023-07-13T01:37:04;21.90;56.70
38325;DHT22;24126;52.672;13.622;2023-07-13T01:39:31;21.80;56.70
38325;DHT22;24126;52.672;13.622;2023-07-13T01:41:58;21.80;56.70
38325;DHT22;24126;52.672;13.622;2023-07-13T01:44:26;21.80;56.90
38325;DHT22;24126;52.672;13.622;2023-07-13T01:46:53;21.80;56.80
38325;DHT22;24126;52.672;13.622;2023-07-13T01:49:20;21.80;56.70
38325;DHT22;24126;52.672;13.622;2023-07-13T01:51:48;21.80;56.70
38325;DHT22;24126;52.672;13.622;2023-07-13T01:54:15;21.70;56.70
38325;DHT22;24126;52.672;13.622;2023-07-13T01:56:43;21.70;56.90
38325;DHT22;24126;52.672;13.622;2023-07-13T01:59:10;21.70;57.00
38325;DHT22;24126;52.672;13.622;2023-07-13T02:01:37;21.60;57.10
38325;DHT22;24126;52.672;13.622;2023-07-13T02:04:04;21.60;57.10
38325;DHT22;24126;52.672;13.622;2023-07-13T02:06:33;21.50;57.10
38325;DHT22;24126;52.672;13.622;2023-07-13T02:09:00;21.50;57.20
38325;DHT22;24126;52.672;13.622;2023-07-13T02:11:27;21.50;57.20
38325;DHT22;24126;52.672;13.622;2023-07-13T02:13:59;21.50;57.30
38325;DHT22;24126;52.672;13.622;2023-07-13T02:16:27;21.50;57.40
38325;DHT22;24126;52.672;13.622;2023-07-13T02:18:54;21.40;57.50
38325;DHT22;24126;52.672;13.622;2023-07-13T02:21:21;21.40;57.50
38325;DHT22;24126;52.672;13.622;2023-07-13T02:23:49;21.40;57.50
38325;DHT22;24126;52.672;13.622;2023-07-13T02:26:16;21.40;57.70
38325;DHT22;24126;52.672;13.622;2023-07-13T02:28:43;21.50;57.90
38325;DHT22;24126;52.672;13.622;2023-07-13T02:31:13;21.50;57.90
38325;DHT22;24126;52.672;13.622;2023-07-13T02:33:41;21.50;57.80
38325;DHT22;24126;52.672;13.622;2023-07-13T02:36:09;21.50;57.60
38325;DHT22;24126;52.672;13.622;2023-07-13T02:38:36;21.50;57.50
38325;DHT22;24126;52.672;13.622;2023-07-13T02:41:04;21.50;57.70
38325;DHT22;24126;52.672;13.622;2023-07-13T02:43:31;21.50;57.60
38325;DHT22;24126;52.672;13.622;2023-07-13T02:45:59;21.60;57.60
38325;DHT22;24126;52.672;13.622;2023-07-13T02:48:30;21.60;58.20
38325;DHT22;24126;52.672;13.622;2023-07-13T02:50:57;21.60;57.60
38325;DHT22;24126;52.672;13.622;2023-07-13T02:53:25;21.60;57.70
38325;DHT22;24126;52.672;13.622;2023-07-13T02:55:52;21.60;57.80
38325;DHT22;24126;52.672;13.622;2023-07-13T02:58:20;21.60;57.70
38325;DHT22;24126;52.672;13.622;2023-07-13T03:00:47;21.60;57.80
38325;DHT22;24126;52.672;13.622;2023-07-13T03:03:16;21.60;57.90
38325;DHT22;24126;52.672;13.622;2023-07-13T03:05:44;21.60;58.00
38325;DHT22;24126;52.672;13.622;2023-07-13T03:08:16;21.60;58.00
38325;DHT22;24126;52.672;13.622;2023-07-13T03:10:45;21.60;58.20
38325;DHT22;24126;52.672;13.622;2023-07-13T03:13:12;21.50;58.20
38325;DHT22;24126;52.672;13.622;2023-07-13T03:15:40;21.50;58.10
38325;DHT22;24126;52.672;13.622;2023-07-13T03:18:07;21.50;58.50
38325;DHT22;24126;52.672;13.622;2023-07-13T03:20:34;21.50;58.30
38325;DHT22;24126;52.672;13.622;2023-07-13T03:23:02;21.50;58.50
38325;DHT22;24126;52.672;13.622;2023-07-13T03:25:29;21.50;58.50
38325;DHT22;24126;52.672;13.622;2023-07-13T03:27:57;21.50;58.50
38325;DHT22;24126;52.672;13.622;2023-07-13T03:30:24;21.40;58.70
38325;DHT22;24126;52.672;13.622;2023-07-13T03:32:51;21.40;59.00
38325;DHT22;24126;52.672;13.622;2023-07-13T03:35:18;21.30;58.90
38325;DHT22;24126;52.672;13.622;2023-07-13T03:37:45;21.30;59.00
38325;DHT22;24126;52.672;13.622;2023-07-13T03:40:17;21.30;58.80
38325;DHT22;24126;52.672;13.622;2023-07-13T03:42:45;21.30;58.90
38325;DHT22;24126;52.672;13.622;2023-07-13T03:45:15;21.30;59.10
38325;DHT22;24126;52.672;13.622;2023-07-13T03:47:42;21.30;58.90
38325;DHT22;24126;52.672;13.622;2023-07-13T03:50:10;21.30;59.20
38325;DHT22;24126;52.672;13.622;2023-07-13T03:52:37;21.20;59.10
38325;DHT22;24126;52.672;13.622;2023-07-13T03:55:04;21.20;59.30
38325;DHT22;24126;52.672;13.622;2023-07-13T03:57:32;21.10;59.30
38325;DHT22;24126;52.672;13.622;2023-07-13T04:00:01;21.10;59.50
38325;DHT22;24126;52.672;13.622;2023-07-13T04:02:29;21.00;59.80
38325;DHT22;24126;52.672;13.622;2023-07-13T04:04:56;21.00;60.20
38325;DHT22;24126;52.672;13.622;2023-07-13T04:07:24;21.10;60.50
38325;DHT22;24126;52.672;13.622;2023-07-13T04:09:51;21.20;60.40
38325;DHT22;24126;52.672;13.622;2023-07-13T04:12:18;21.40;60.30
38325;DHT22;24126;52.672;13.622;2023-07-13T04:14:46;21.50;60.30
38325;DHT22;24126;52.672;13.622;2023-07-13T04:17:13;21.80;60.00
38325;DHT22;24126;52.672;13.622;2023-07-13T04:19:40;22.10;59.60
38325;DHT22;24126;52.672;13.622;2023-07-13T04:22:07;22.50;59.00
38325;DHT22;24126;52.672;13.622;2023-07-13T04:24:34;23.00;58.00
38325;DHT22;24126;52.672;13.622;2023-07-13T04:27:01;23.60;56.90
38325;DHT22;24126;52.672;13.622;2023-07-13T04:29:28;24.00;55.70
38325;DHT22;24126;52.672;13.622;2023-07-13T04:31:56;24.50;55.10
38325;DHT22;24126;52.672;13.622;2023-07-13T04:34:23;25.00;54.00
38325;DHT22;24126;52.672;13.622;2023-07-13T04:36:50;25.80;52.60
38325;DHT22;24126;52.672;13.622;2023-07-13T04:39:18;26.70;50.80
38325;DHT22;24126;52.672;13.622;2023-07-13T04:41:46;27.60;49.10
38325;DHT22;24126;52.672;13.622;2023-07-13T04:44:13;28.40;47.40
38325;DHT22;24126;52.672;13.622;2023-07-13T04:46:40;29.00;46.00
38325;DHT22;24126;52.672;13.622;2023-07-13T04:49:07;29.30;44.90
38325;DHT22;24126;52.672;13.622;2023-07-13T04:51:34;29.60;44.00
38325;DHT22;24126;52.672;13.622;2023-07-13T04:54:01;29.50;43.70
38325;DHT22;24126;52.672;13.622;2023-07-13T04:56:30;29.30;44.00
38325;DHT22;24126;52.672;13.622;2023-07-13T04:58:57;29.00;44.50
38325;DHT22;24126;52.672;13.622;2023-07-13T05:01:25;28.70;45.00
38325;DHT22;24126;52.672;13.622;2023-07-13T05:03:53;28.30;45.60
38325;DHT22;24126;52.672;13.622;2023-07-13T05:06:22;27.90;46.40
38325;DHT22;24126;52.672;13.622;2023-07-13T05:08:49;27.50;47.10
38325;DHT22;24126;52.672;13.622;2023-07-13T05:11:17;27.20;48.00
38325;DHT22;24126;52.672;13.622;2023-07-13T05:13:44;26.90;48.70
38325;DHT22;24126;52.672;13.622;2023-07-13T05:16:11;26.60;49.40
38325;DHT22;24126;52.672;13.622;2023-07-13T05:18:38;26.40;50.10
38325;DHT22;24126;52.672;13.622;2023-07-13T05:21:06;26.20;50.40
38325;DHT22;24126;52.672;13.622;2023-07-13T05:23:34;26.10;50.80
38325;DHT22;24126;52.672;13.622;2023-07-13T05:26:01;26.00;51.10
38325;DHT22;24126;52.672;13.622;2023-07-13T05:28:29;26.00;51.40
38325;DHT22;24126;52.672;13.622;2023-07-13T05:30:57;25.90;52.00
38325;DHT22;24126;52.672;13.622;2023-07-13T05:33:24;25.90;51.50
38325;DHT22;24126;52.672;13.622;2023-07-13T05:35:51;25.90;51.60
38325;DHT22;24126;52.672;13.622;2023-07-13T05:38:18;25.90;51.60
38325;DHT22;24126;52.672;13.622;2023-07-13T05:40:45;26.00;51.80
38325;DHT22;24126;52.672;13.622;2023-07-13T05:43:13;26.00;51.50
38325;DHT22;24126;52.672;13.622;2023-07-13T05:45:40;26.10;51.60
38325;DHT22;24126;52.672;13.622;2023-07-13T05:48:07;26.10;51.50
38325;DHT22;24126;52.672;13.622;2023-07-13T05:50:34;26.20;51.40
38325;DHT22;24126;52.672;13.622;2023-07-13T05:53:02;26.30;51.70
38325;DHT22;24126;52.672;13.622;2023-07-13T05:55:29;26.30;51.30
38325;DHT22;24126;52.672;13.622;2023-07-13T05:57:56;26.40;51.30
38325;DHT22;24126;52.672;13.622;2023-07-13T06:00:24;26.50;51.30
38325;DHT22;24126;52.672;13.622;2023-07-13T06:02:51;26.50;51.00
38325;DHT22;24126;52.672;13.622;2023-07-13T06:05:18;26.50;51.00
38325;DHT22;24126;52.672;13.622;2023-07-13T06:07:45;26.60;51.00
38325;DHT22;24126;52.672;13.622;2023-07-13T06:10:12;26.70;51.00
38325;DHT22;24126;52.672;13.622;2023-07-13T06:12:39;26.80;50.60
38325;DHT22;24126;52.672;13.622;2023-07-13T06:15:06;26.90;50.50
38325;DHT22;24126;52.672;13.622;2023-07-13T06:17:34;26.90;50.50
38325;DHT22;24126;52.672;13.622;2023-07-13T06:20:01;27.00;50.50
38325;DHT22;24126;52.672;13.622;2023-07-13T06:22:28;27.10;50.50
38325;DHT22;24126;52.672;13.622;2023-07-13T06:24:55;27.10;50.30
38325;DHT22;24126;52.672;13.622;2023-07-13T06:27:22;27.10;50.60
38325;DHT22;24126;52.672;13.622;2023-07-13T06:29:49;27.20;50.70
38325;DHT22;24126;52.672;13.622;2023-07-13T06:32:16;27.20;50.50
38325;DHT22;24126;52.672;13.622;2023-07-13T06:34:43;27.30;50.40
38325;DHT22;24126;52.672;13.622;2023-07-13T06:37:11;27.40;50.20
38325;DHT22;24126;52.672;13.622;2023-07-13T06:39:38;27.50;50.20
38325;DHT22;24126;52.672;13.622;2023-07-13T06:42:05;27.60;50.00
38325;DHT22;24126;52.672;13.622;2023-07-13T06:44:32;27.70;49.80
38325;DHT22;24126;52.672;13.622;2023-07-13T06:46:59;27.80;49.80
38325;DHT22;24126;52.672;13.622;2023-07-13T06:49:26;27.90;49.60
38325;DHT22;24126;52.672;13.622;2023-07-13T06:51:54;28.00;49.20
38325;DHT22;24126;52.672;13.622;2023-07-13T06:54:21;28.10;49.20
38325;DHT22;24126;52.672;13.622;2023-07-13T06:56:48;28.30;48.90
38325;DHT22;24126;52.672;13.622;2023-07-13T06:59:15;28.40;48.70
38325;DHT22;24126;52.672;13.622;2023-07-13T07:01:42;28.50;48.50
38325;DHT22;24126;52.672;13.622;2023-07-13T07:04:09;28.60;48.20
38325;DHT22;24126;52.672;13.622;2023-07-13T07:06:36;28.70;48.20
38325;DHT22;24126;52.672;13.622;2023-07-13T07:09:03;28.80;47.90
38325;DHT22;24126;52.672;13.622;2023-07-13T07:11:30;29.00;47.70
38325;DHT22;24126;52.672;13.622;2023-07-13T07:13:57;29.10;47.50
38325;DHT22;24126;52.672;13.622;2023-07-13T07:16:24;29.20;47.10
38325;DHT22;24126;52.672;13.622;2023-07-13T07:18:51;29.30;46.90
38325;DHT22;24126;52.672;13.622;2023-07-13T07:21:18;29.40;47.00
38325;DHT22;24126;52.672;13.622;2023-07-13T07:23:45;29.50;46.70
38325;DHT22;24126;52.672;13.622;2023-07-13T07:26:12;29.60;46.30
38325;DHT22;24126;52.672;13.622;2023-07-13T07:28:39;29.60;46.00
38325;DHT22;24126;52.672;13.622;2023-07-13T07:31:07;29.50;45.60
38325;DHT22;24126;52.672;13.622;2023-07-13T07:33:34;29.40;45.90
38325;DHT22;24126;52.672;13.622;2023-07-13T07:36:01;29.40;46.00
38325;DHT22;24126;52.672;13.622;2023-07-13T07:38:29;29.60;46.10
38325;DHT22;24126;52.672;13.622;2023-07-13T07:40:56;29.70;45.20
38325;DHT22;24126;52.672;13.622;2023-07-13T07:43:23;29.90;45.00
38325;DHT22;24126;52.672;13.622;2023-07-13T07:45:50;30.00;44.40
38325;DHT22;24126;52.672;13.622;2023-07-13T07:48:17;30.20;44.20
38325;DHT22;24126;52.672;13.622;2023-07-13T07:50:45;30.30;43.80
38325;DHT22;24126;52.672;13.622;2023-07-13T07:53:12;30.40;43.40
38325;DHT22;24126;52.672;13.622;2023-07-13T07:55:39;30.50;43.40
38325;DHT22;24126;52.672;13.622;2023-07-13T07:58:06;30.60;43.30
38325;DHT22;24126;52.672;13.622;2023-07-13T08:00:34;30.70;43.10
38325;DHT22;24126;52.672;13.622;2023-07-13T08:03:01;30.80;42.50
38325;DHT22;24126;52.672;13.622;2023-07-13T08:05:28;31.00;42.00
38325;DHT22;24126;52.672;13.622;2023-07-13T08:07:55;31.10;41.60
38325;DHT22;24126;52.672;13.622;2023-07-13T08:10:22;31.30;41.30
38325;DHT22;24126;52.672;13.622;2023-07-13T08:12:49;31.40;40.90
38325;DHT22;24126;52.672;13.622;2023-07-13T08:15:17;31.60;40.30
38325;DHT22;24126;52.672;13.622;2023-07-13T08:17:47;31.60;39.50
38325;DHT22;24126;52.672;13.622;2023-07-13T08:20:14;31.60;39.10
38325;DHT22;24126;52.672;13.622;2023-07-13T08:22:42;31.50;39.00
38325;DHT22;24126;52.672;13.622;2023-07-13T08:25:09;31.50;38.60
38325;DHT22;24126;52.672;13.622;2023-07-13T08:27:36;31.50;38.70
38325;DHT22;24126;52.672;13.622;2023-07-13T08:30:03;31.60;38.70
38325;DHT22;24126;52.672;13.622;2023-07-13T08:32:31;31.70;38.70
38325;DHT22;24126;52.672;13.622;2023-07-13T08:34:58;31.70;38.40
38325;DHT22;24126;52.672;13.622;2023-07-13T08:37:25;31.90;38.30
38325;DHT22;24126;52.672;13.622;2023-07-13T08:39:53;32.00;37.40
38325;DHT22;24126;52.672;13.622;2023-07-13T08:42:33;32.20;37.80
38325;DHT22;24126;52.672;13.622;2023-07-13T08:45:05;32.20;37.40
38325;DHT22;24126;52.672;13.622;2023-07-13T08:47:35;32.30;37.50
38325;DHT22;24126;52.672;13.622;2023-07-13T08:50:04;32.40;36.90
38325;DHT22;24126;52.672;13.622;2023-07-13T08:52:35;32.50;36.50
38325;DHT22;24126;52.672;13.622;2023-07-13T08:55:11;32.60;36.60
38325;DHT22;24126;52.672;13.622;2023-07-13T08:57:39;32.50;36.40
38325;DHT22;24126;52.672;13.622;2023-07-13T09:00:11;32.40;36.70
38325;DHT22;24126;52.672;13.622;2023-07-13T09:02:49;32.40;36.80
38325;DHT22;24126;52.672;13.622;2023-07-13T09:05:22;32.40;37.20
38325;DHT22;24126;52.672;13.622;2023-07-13T09:10:42;32.60;37.30
38325;DHT22;24126;52.672;13.622;2023-07-13T09:15:41;32.90;36.70
38325;DHT22;24126;52.672;13.622;2023-07-13T09:18:23;33.10;36.50
38325;DHT22;24126;52.672;13.622;2023-07-13T09:20:54;33.20;36.60
38325;DHT22;24126;52.672;13.622;2023-07-13T09:23:23;33.20;36.00
38325;DHT22;24126;52.672;13.622;2023-07-13T09:25:53;33.10;36.00
38325;DHT22;24126;52.672;13.622;2023-07-13T09:28:28;33.00;36.40
38325;DHT22;24126;52.672;13.622;2023-07-13T09:31:00;33.00;36.10
38325;DHT22;24126;52.672;13.622;2023-07-13T09:33:28;33.00;36.00
38325;DHT22;24126;52.672;13.622;2023-07-13T09:35:56;33.10;35.90
38325;DHT22;24126;52.672;13.622;2023-07-13T09:38:24;33.20;35.40
38325;DHT22;24126;52.672;13.622;2023-07-13T09:41:03;33.40;35.30
38325;DHT22;24126;52.672;13.622;2023-07-13T09:43:31;33.50;34.90
38325;DHT22;24126;52.672;13.622;2023-07-13T09:45:58;33.70;34.60
38325;DHT22;24126;52.672;13.622;2023-07-13T09:48:26;33.70;34.20
38325;DHT22;24126;52.672;13.622;2023-07-13T09:51:04;33.80;33.70
38325;DHT22;24126;52.672;13.622;2023-07-13T09:53:33;33.80;33.00
38325;DHT22;24126;52.672;13.622;2023-07-13T09:56:00;33.80;33.20
38325;DHT22;24126;52.672;13.622;2023-07-13T09:58:29;33.90;33.70
38325;DHT22;24126;52.672;13.622;2023-07-13T10:00:58;34.00;33.60
38325;DHT22;24126;52.672;13.622;2023-07-13T10:03:29;34.10;33.80
38325;DHT22;24126;52.672;13.622;2023-07-13T10:06:12;34.10;33.40
38325;DHT22;24126;52.672;13.622;2023-07-13T10:08:40;34.00;34.10
38325;DHT22;24126;52.672;13.622;2023-07-13T10:11:20;34.00;34.10
38325;DHT22;24126;52.672;13.622;2023-07-13T10:13:56;34.00;33.40
38325;DHT22;24126;52.672;13.622;2023-07-13T10:16:25;34.10;33.00
38325;DHT22;24126;52.672;13.622;2023-07-13T10:19:17;33.90;32.80
38325;DHT22;24126;52.672;13.622;2023-07-13T10:21:43;33.70;32.80
38325;DHT22;24126;52.672;13.622;2023-07-13T10:24:15;33.40;33.50
38325;DHT22;24126;52.672;13.622;2023-07-13T10:27:00;33.40;33.60
38325;DHT22;24126;52.672;13.622;2023-07-13T10:29:30;33.30;33.50
38325;DHT22;24126;52.672;13.622;2023-07-13T10:32:01;33.00;33.30
38325;DHT22;24126;52.672;13.622;2023-07-13T10:34:28;32.90;34.10
38325;DHT22;24126;52.672;13.622;2023-07-13T10:36:57;32.80;34.50
38325;DHT22;24126;52.672;13.622;2023-07-13T10:39:26;32.80;34.10
38325;DHT22;24126;52.672;13.622;2023-07-13T10:41:57;32.70;34.50
38325;DHT22;24126;52.672;13.622;2023-07-13T10:44:26;32.80;34.50
38325;DHT22;24126;52.672;13.622;2023-07-13T10:46:55;32.80;34.50
38325;DHT22;24126;52.672;13.622;2023-07-13T10:49:24;32.70;34.40
38325;DHT22;24126;52.672;13.622;2023-07-13T10:51:51;32.70;34.50
38325;DHT22;24126;52.672;13.622;2023-07-13T10:54:19;32.50;35.10
38325;DHT22;24126;52.672;13.622;2023-07-13T10:57:34;32.40;35.10
38325;DHT22;24126;52.672;13.622;2023-07-13T10:59:36;32.40;35.10
38325;DHT22;24126;52.672;13.622;2023-07-13T11:04:39;32.20;35.10
38325;DHT22;24126;52.672;13.622;2023-07-13T11:07:11;32.20;35.40
38325;DHT22;24126;52.672;13.622;2023-07-13T11:09:39;32.20;35.80
38325;DHT22;24126;52.672;13.622;2023-07-13T11:12:07;32.30;36.10
38325;DHT22;24126;52.672;13.622;2023-07-13T11:14:43;32.50;35.90
38325;DHT22;24126;52.672;13.622;2023-07-13T11:17:54;32.80;35.20
38325;DHT22;24126;52.672;13.622;2023-07-13T11:22:48;33.10;34.70
38325;DHT22;24126;52.672;13.622;2023-07-13T11:25:29;33.30;33.40
38325;DHT22;24126;52.672;13.622;2023-07-13T11:28:04;33.40;33.10
38325;DHT22;24126;52.672;13.622;2023-07-13T11:30:35;33.40;32.40
38325;DHT22;24126;52.672;13.622;2023-07-13T11:33:22;33.50;32.10
38325;DHT22;24126;52.672;13.622;2023-07-13T11:36:06;33.60;32.10
38325;DHT22;24126;52.672;13.622;2023-07-13T11:38:36;33.70;31.70
38325;DHT22;24126;52.672;13.622;2023-07-13T11:41:05;33.80;31.40
38325;DHT22;24126;52.672;13.622;2023-07-13T11:43:33;33.90;31.30
38325;DHT22;24126;52.672;13.622;2023-07-13T11:46:13;34.00;31.50
38325;DHT22;24126;52.672;13.622;2023-07-13T11:48:40;34.00;32.00
38325;DHT22;24126;52.672;13.622;2023-07-13T11:51:10;34.10;31.40
38325;DHT22;24126;52.672;13.622;2023-07-13T11:53:44;34.20;31.60
38325;DHT22;24126;52.672;13.622;2023-07-13T11:56:12;34.20;31.50
38325;DHT22;24126;52.672;13.622;2023-07-13T11:58:39;34.30;31.10
38325;DHT22;24126;52.672;13.622;2023-07-13T12:01:12;34.20;30.90
38325;DHT22;24126;52.672;13.622;2023-07-13T12:03:41;34.20;30.90
38325;DHT22;24126;52.672;13.622;2023-07-13T12:06:29;34.20;30.40
38325;DHT22;24126;52.672;13.622;2023-07-13T12:08:56;34.20;30.40
38325;DHT22;24126;52.672;13.622;2023-07-13T12:11:24;34.20;30.40
38325;DHT22;24126;52.672;13.622;2023-07-13T12:13:51;34.30;30.70
38325;DHT22;24126;52.672;13.622;2023-07-13T12:18:52;34.40;30.40
38325;DHT22;24126;52.672;13.622;2023-07-13T12:21:19;34.40;30.50
38325;DHT22;24126;52.672;13.622;2023-07-13T12:23:49;34.50;30.40
38325;DHT22;24126;52.672;13.622;2023-07-13T12:26:17;34.50;30.40
38325;DHT22;24126;52.672;13.622;2023-07-13T12:28:49;34.60;30.70
38325;DHT22;24126;52.672;13.622;2023-07-13T12:33:58;34.70;30.00
38325;DHT22;24126;52.672;13.622;2023-07-13T12:36:25;34.70;29.70
38325;DHT22;24126;52.672;13.622;2023-07-13T12:38:54;34.70;29.60
38325;DHT22;24126;52.672;13.622;2023-07-13T12:41:23;34.70;29.70
38325;DHT22;24126;52.672;13.622;2023-07-13T12:43:51;34.60;29.70
38325;DHT22;24126;52.672;13.622;2023-07-13T12:46:20;34.60;30.00
38325;DHT22;24126;52.672;13.622;2023-07-13T12:48:48;34.50;30.10
38325;DHT22;24126;52.672;13.622;2023-07-13T12:51:16;34.60;30.00
38325;DHT22;24126;52.672;13.622;2023-07-13T12:53:49;34.60;30.50
38325;DHT22;24126;52.672;13.622;2023-07-13T12:56:20;34.60;30.00
38325;DHT22;24126;52.672;13.622;2023-07-13T12:58:54;34.60;29.40
38325;DHT22;24126;52.672;13.622;2023-07-13T13:01:21;34.60;29.60
38325;DHT22;24126;52.672;13.622;2023-07-13T13:03:50;34.60;29.90
38325;DHT22;24126;52.672;13.622;2023-07-13T13:08:46;34.50;29.20
38325;DHT22;24126;52.672;13.622;2023-07-13T13:11:17;34.40;29.50
38325;DHT22;24126;52.672;13.622;2023-07-13T13:13:45;34.20;29.50
38325;DHT22;24126;52.672;13.622;2023-07-13T13:18:42;33.90;29.50
38325;DHT22;24126;52.672;13.622;2023-07-13T13:21:10;33.80;29.90
38325;DHT22;24126;52.672;13.622;2023-07-13T13:23:37;33.70;29.90
38325;DHT22;24126;52.672;13.622;2023-07-13T13:26:07;33.70;30.00
38325;DHT22;24126;52.672;13.622;2023-07-13T13:28:35;33.70;29.90
38325;DHT22;24126;52.672;13.622;2023-07-13T13:31:02;33.80;30.00
38325;DHT22;24126;52.672;13.622;2023-07-13T13:33:29;33.80;29.80
38325;DHT22;24126;52.672;13.622;2023-07-13T13:35:56;33.80;29.70
38325;DHT22;24126;52.672;13.622;2023-07-13T13:38:25;33.70;29.50
38325;DHT22;24126;52.672;13.622;2023-07-13T13:40:52;33.60;29.90
38325;DHT22;24126;52.672;13.622;2023-07-13T13:43:23;33.50;29.90
38325;DHT22;24126;52.672;13.622;2023-07-13T13:45:53;33.50;29.70
38325;DHT22;24126;52.672;13.622;2023-07-13T13:48:33;33.40;30.00
38325;DHT22;24126;52.672;13.622;2023-07-13T13:51:01;33.40;30.10
38325;DHT22;24126;52.672;13.622;2023-07-13T13:53:32;33.40;30.20
38325;DHT22;24126;52.672;13.622;2023-07-13T13:55:59;33.30;30.30
38325;DHT22;24126;52.672;13.622;2023-07-13T13:58:26;33.30;30.50
38325;DHT22;24126;52.672;13.622;2023-07-13T14:00:54;33.30;30.90
38325;DHT22;24126;52.672;13.622;2023-07-13T14:03:21;33.30;30.30
38325;DHT22;24126;52.672;13.622;2023-07-13T14:05:48;33.30;30.30
38325;DHT22;24126;52.672;13.622;2023-07-13T14:08:17;33.20;30.10
38325;DHT22;24126;52.672;13.622;2023-07-13T14:10:45;33.10;30.70
38325;DHT22;24126;52.672;13.622;2023-07-13T14:13:16;33.00;30.70
38325;DHT22;24126;52.672;13.622;2023-07-13T14:15:44;33.00;30.60
38325;DHT22;24126;52.672;13.622;2023-07-13T14:18:11;32.90;30.40
38325;DHT22;24126;52.672;13.622;2023-07-13T14:20:44;32.90;30.60
38325;DHT22;24126;52.672;13.622;2023-07-13T14:23:15;32.80;30.50
38325;DHT22;24126;52.672;13.622;2023-07-13T14:25:44;32.70;30.60
38325;DHT22;24126;52.672;13.622;2023-07-13T14:28:24;32.70;30.90
38325;DHT22;24126;52.672;13.622;2023-07-13T14:30:52;32.70;30.70
38325;DHT22;24126;52.672;13.622;2023-07-13T14:33:20;32.60;30.80
38325;DHT22;24126;52.672;13.622;2023-07-13T14:35:48;32.50;30.90
38325;DHT22;24126;52.672;13.622;2023-07-13T14:38:17;32.40;30.80
38325;DHT22;24126;52.672;13.622;2023-07-13T14:40:45;32.40;30.90
38325;DHT22;24126;52.672;13.622;2023-07-13T14:43:16;32.30;31.10
38325;DHT22;24126;52.672;13.622;2023-07-13T14:45:46;32.20;31.40
38325;DHT22;24126;52.672;13.622;2023-07-13T14:48:17;32.20;31.70
38325;DHT22;24126;52.672;13.622;2023-07-13T14:50:45;32.20;31.60
38325;DHT22;24126;52.672;13.622;2023-07-13T14:53:13;32.10;31.40
38325;DHT22;24126;52.672;13.622;2023-07-13T14:55:40;32.10;31.50
38325;DHT22;24126;52.672;13.622;2023-07-13T14:58:08;32.10;31.80
38325;DHT22;24126;52.672;13.622;2023-07-13T15:00:35;32.10;31.70
38325;DHT22;24126;52.672;13.622;2023-07-13T15:03:03;32.00;31.80
38325;DHT22;24126;52.672;13.622;2023-07-13T15:05:32;31.90;31.60
38325;DHT22;24126;52.672;13.622;2023-07-13T15:07:59;31.90;32.00
38325;DHT22;24126;52.672;13.622;2023-07-13T15:10:31;31.90;31.90
38325;DHT22;24126;52.672;13.622;2023-07-13T15:13:12;31.90;32.40
38325;DHT22;24126;52.672;13.622;2023-07-13T15:15:40;31.80;32.30
38325;DHT22;24126;52.672;13.622;2023-07-13T15:18:09;31.80;32.10
38325;DHT22;24126;52.672;13.622;2023-07-13T15:20:38;31.80;31.90
38325;DHT22;24126;52.672;13.622;2023-07-13T15:23:05;31.70;31.60
38325;DHT22;24126;52.672;13.622;2023-07-13T15:25:32;31.70;31.60
38325;DHT22;24126;52.672;13.622;2023-07-13T15:28:00;31.70;31.30
38325;DHT22;24126;52.672;13.622;2023-07-13T15:30:29;31.60;31.30
38325;DHT22;24126;52.672;13.622;2023-07-13T15:32:57;31.60;31.40
38325;DHT22;24126;52.672;13.622;2023-07-13T15:35:26;31.60;31.40
38325;DHT22;24126;52.672;13.622;2023-07-13T15:37:53;31.60;31.60
38325;DHT22;24126;52.672;13.622;2023-07-13T15:40:22;31.50;31.70
38325;DHT22;24126;52.672;13.622;2023-07-13T15:42:50;31.50;31.60
38325;DHT22;24126;52.672;13.622;2023-07-13T15:45:18;31.50;32.00
38325;DHT22;24126;52.672;13.622;2023-07-13T15:47:46;31.50;32.20